PORT of SHANGHAI

Country: China Country: China [CN]
Latitude / Longitude: 31.381445° / 121.601° Show on Map
Local Time:  [UTC +8]
UN/LOCODE: CNSHA
Vessels in Port: 824
Expected Arrivals: 195

Recent Arrivals & Departures


Vessel's Name
Arrival (UTC)
Arrival (LT)
Departure (UTC)
Departure (LT)
Vessel Type: Fishing  GUO YU 7 HAO 2014-08-27 16:00:00 2014-08-28 00:00:00 2014-08-27 19:50:00 2014-08-28 03:50:00
Vessel Type: Cargo Vessels  HE FENG 9 2014-08-27 09:16:00 2014-08-27 17:16:00 2014-08-27 19:48:00 2014-08-28 03:48:00
Vessel Type: Tankers  WOOLIM DRAGON 7 2014-08-27 04:08:00 2014-08-27 12:08:00 2014-08-27 19:48:00 2014-08-28 03:48:00
Vessel Type: Cargo Vessels  XING HANG 999 2014-08-27 19:41:00 2014-08-28 03:41:00
Vessel Type: Cargo Vessels  HONG XING 169 2014-08-27 16:52:00 2014-08-28 00:52:00 2014-08-27 19:39:00 2014-08-28 03:39:00
Vessel Type: Cargo Vessels  PU HAI 219 2014-08-27 19:39:00 2014-08-28 03:39:00
Vessel Type: Cargo Vessels  XING HANG HAI 198 2014-08-27 11:51:00 2014-08-27 19:51:00 2014-08-27 19:35:00 2014-08-28 03:35:00
Vessel Type: Cargo Vessels  JI HAI YONG QIANG 2014-08-27 19:28:00 2014-08-28 03:28:00
Vessel Type: Cargo Vessels  ZHE HAI 102 2014-08-27 14:21:00 2014-08-27 22:21:00 2014-08-27 19:26:00 2014-08-28 03:26:00
Vessel Type: Cargo Vessels  HYUNDAI SHANGHAI 2014-08-26 13:34:00 2014-08-26 21:34:00 2014-08-27 19:24:00 2014-08-28 03:24:00

Expected Arrivals


Vessel's Name
Scheduled Arrival (UTC)
Scheduled Arrival (LT)
Estimated Arrival (UTC)
Estimated Arrival (LT)
Vessel Type: Cargo Vessels  JIN TAI 68 2014-08-26 14:00:00 2014-08-26 22:00:00
Vessel Type: Tankers  LUCKY STAR 2014-08-26 15:00:00 2014-08-26 23:00:00
Vessel Type: Cargo Vessels  YUE DIAN 2 2014-08-26 16:00:00 2014-08-27 00:00:00
Vessel Type: Tankers  HONG DA HAI 26 2014-08-26 16:00:00 2014-08-27 00:00:00
Vessel Type: Cargo Vessels  CORNELIUS MAERSK 2014-08-26 16:30:00 2014-08-27 00:30:00 2014-08-27 22:33:00 2014-08-28 06:33:00
Vessel Type: Tankers  HAIGONGYOU30 2014-08-26 17:00:00 2014-08-27 01:00:00
Vessel Type: Cargo Vessels  PANTHERA 2014-08-26 17:00:00 2014-08-27 01:00:00
Vessel Type: Tankers  YUN TONG 168 2014-08-26 18:00:00 2014-08-27 02:00:00
Vessel Type: Cargo Vessels  ZI JING SONG 2014-08-26 19:00:00 2014-08-27 03:00:00
Vessel Type: Tankers  HAIGONGYOU29 2014-08-26 19:00:00 2014-08-27 03:00:00

Wind Forecast


    
Time (UTC)
Speed
Direction
Temperature
2014-08-27 18:00:00 9 knots 87° 25°C
2014-08-27 21:00:00 11 knots 63° 25°C
2014-08-28 00:00:00 11 knots 66° 26°C
2014-08-28 03:00:00 9 knots 63° 27°C
2014-08-28 06:00:00 8 knots 51° 26°C
2014-08-28 09:00:00 10 knots 51° 26°C
2014-08-28 12:00:00 8 knots 56° 25°C
2014-08-28 15:00:00 5 knots 37° 25°C
2014-08-28 18:00:00 4 knots 39° 24°C
2014-08-28 21:00:00 9 knots 13° 24°C
2014-08-29 00:00:00 8 knots 27° 24°C
2014-08-29 03:00:00 8 knots 27° 26°C
2014-08-29 06:00:00 8 knots 43° 26°C
2014-08-29 09:00:00 8 knots 52° 26°C
2014-08-29 12:00:00 5 knots 53° 25°C
2014-08-29 15:00:00 3 knots 44° 24°C
2014-08-29 18:00:00 5 knots 24°C